New Haven, CT (06507)

2:12 PM EDT on July 30, 2015 (GMT -0400)
Yale, Kline Geology Lab | | Change Station
CLOSE
Current Station
Personal Weather Station
Location: New Haven, CT
Elevation: 39 ft
Nearby Weather Stations

Elev 39 ft 41.32 °N, 72.92 °W | Updated 10 minutes ago

Overcast
Overcast
82.9 °F
Feels Like 91 °F
N
0.0
Wind Variable Wind from North
Gusts 0.9 mph

Today
High -- | Low -- °F
--% Chance of Precip.
Yesterday
High -- | Low -- °F
Precip. -- in
5:44 AM 8:10 PM
Waxing Gibbous, 99% visible
Pressure 29.86 in
Visibility 10.0 miles
Clouds Mostly Cloudy 2300 ft
Overcast 25000 ft
Heat Index 91 °F
Dew Point 76 °F
Humidity 79%
Rainfall -999.00 in
Snow Depth Not available.
UV 3 out of 12
Pollen 6.40 out of 12
Air Quality Not available.
Flu Activity Not available.
METAR KHVN 301753Z 19008KT 10SM BKN023 OVC250 28/24 A2986 RMK AO2 SLP109 T02830239 10283 20244 58012

More Conditions Fewer Conditions

Pressure 29.86 in
Visibility 10.0 miles
Clouds Mostly Cloudy 2300 ft
Overcast 25000 ft
Heat Index 91 °F
Dew Point 76 °F
Humidity 79%
Rainfall -999.00 in
Snow Depth Not available.
UV 3 out of 12
Pollen 6.40 out of 12
Air Quality Not available.
Flu Activity Not available.
METAR KHVN 301753Z 19008KT 10SM BKN023 OVC250 28/24 A2986 RMK AO2 SLP109 T02830239 10283 20244 58012

More Conditions Fewer Conditions

10-Day Weather Forecast

×

Almanac

Astronomy

Jul. 30, 2015 Rise Set
Actual Time
Civil Twilight
Nautical Twilight
Astronomical Twilight
Moon
Length of Visible Light
Length of Day
Tomorrow will be .
, % of the Moon is Illuminated

Today's Extremes

State Highs State Lows

Community

WunderPhotos

Upload Photos

1,842,449 photos uploaded!

WunderBlogs® & News

Nearby

Air Quality

  Air Quality AQ Index Pollutant
Not available.

Snow Depth

Station Depth Elevation

Earthquake Activity

City Distance Mag. Time & Date
Minimum magnitude displayed is 2.5.

Coastal Water Temperatures

Place Temperature

Stations

Nearby Weather Stations

Station Location Temp. Windchill Dew Point Humidity Wind Precip. Elev Updated Type